Terminal Aerodrome Forecast
Issued by NWS

Home | Current Version | Previous Version | Text Only | Print | Product List | Glossary On
Versions: 1 2 3 4 5 6 7 8 9 10 11 12 13 14 15 16 17 18
000
FTUS42 TJSJ 210000 AAA
TAFJSJ
TAF AMD
TJSJ 210015Z 2100/2124 09007KT P6SM VCSH FEW035 FEW060
     FM211300 08015G22KT P6SM VCSH SCT024 SCT030 SCT050
     FM212200 09007KT P6SM VCSH SCT030 SCT050=

USA.gov is the U.S. government's official web portal to all federal, state and local government web resources and services.